createdAt,value
2022-08-23T00:00:19.596Z,101561.88
2022-08-23T00:00:49.835Z,101562.20
2022-08-23T00:01:21.150Z,101567.66
2022-08-23T00:01:51.768Z,101565.18
2022-08-23T00:02:24.073Z,101558.89
2022-08-23T00:02:54.231Z,101563.39
2022-08-23T00:03:24.325Z,101565.36
2022-08-23T00:03:54.352Z,101564.57
2022-08-23T00:04:24.342Z,101565.21
2022-08-23T00:05:08.013Z,101564.23
2022-08-23T00:05:34.191Z,101569.70
2022-08-23T00:06:04.174Z,101567.38
2022-08-23T00:06:34.199Z,101568.20
2022-08-23T00:07:04.183Z,101565.56
2022-08-23T00:07:38.188Z,101561.43
2022-08-23T00:08:08.754Z,101566.56
2022-08-23T00:08:38.765Z,101566.39
2022-08-23T00:09:13.692Z,101562.44
2022-08-23T00:09:43.691Z,101568.23
2022-08-23T00:10:13.696Z,101566.23
2022-08-23T00:10:43.684Z,101566.41
2022-08-23T00:11:13.681Z,101564.45
2022-08-23T00:11:43.678Z,101564.41
2022-08-23T00:12:13.657Z,101566.07
2022-08-23T00:12:43.645Z,101564.06
2022-08-23T00:13:13.647Z,101560.45
2022-08-23T00:13:47.241Z,101566.74
2022-08-23T00:14:18.338Z,101565.11
2022-08-23T00:14:48.324Z,101563.92
2022-08-23T00:15:18.305Z,101565.75
2022-08-23T00:15:48.288Z,101564.77
2022-08-23T00:16:18.272Z,101564.10
2022-08-23T00:16:48.285Z,101567.41
2022-08-23T00:17:33.765Z,101567.59
2022-08-23T00:17:53.204Z,101567.11
2022-08-23T00:18:23.183Z,101565.25
2022-08-23T00:18:53.190Z,101566.75
2022-08-23T00:19:23.178Z,101567.77
2022-08-23T00:19:53.162Z,101569.09
2022-08-23T00:20:23.149Z,101568.92
2022-08-23T00:20:53.136Z,101568.09
2022-08-23T00:21:23.134Z,101568.58
2022-08-23T00:21:53.140Z,101565.61
2022-08-23T00:22:23.116Z,101563.61
2022-08-23T00:22:53.102Z,101562.80
2022-08-23T00:23:23.085Z,101564.59
2022-08-23T00:23:53.078Z,101563.95
2022-08-23T00:24:23.057Z,101563.29
2022-08-23T00:24:53.054Z,101564.45
2022-08-23T00:25:23.043Z,101561.13
2022-08-23T00:25:53.066Z,101563.29
2022-08-23T00:26:23.044Z,101564.45
2022-08-23T00:26:53.029Z,101564.45
2022-08-23T00:27:23.011Z,101566.61
2022-08-23T00:27:52.991Z,101560.16
2022-08-23T00:28:22.990Z,101560.69
2022-08-23T00:28:52.969Z,101561.33
2022-08-23T00:29:22.947Z,101567.14
2022-08-23T00:29:54.511Z,101563.61
2022-08-23T00:30:24.512Z,101562.30
2022-08-23T00:30:54.507Z,101562.62
2022-08-23T00:31:24.513Z,101564.45
2022-08-23T00:31:54.522Z,101565.13
2022-08-23T00:32:24.501Z,101564.34
2022-08-23T00:32:57.975Z,101563.66
2022-08-23T00:33:28.150Z,101563.84
2022-08-23T00:33:58.137Z,101562.34
2022-08-23T00:34:28.123Z,101567.63
2022-08-23T00:34:58.118Z,101565.64
2022-08-23T00:35:28.102Z,101561.84
2022-08-23T00:35:58.086Z,101569.62
2022-08-23T00:36:28.067Z,101570.62
2022-08-23T00:36:58.050Z,101565.34
2022-08-23T00:37:28.027Z,101566.15
2022-08-23T00:38:34.011Z,101570.77
2022-08-23T00:38:35.082Z,101568.30
2022-08-23T00:39:05.306Z,101572.28
2022-08-23T00:39:35.315Z,101572.78
2022-08-23T00:40:05.409Z,101569.14
2022-08-23T00:40:35.467Z,101571.12
2022-08-23T00:41:05.457Z,101571.12
2022-08-23T00:41:35.442Z,101573.73
2022-08-23T00:42:05.421Z,101571.10
2022-08-23T00:42:35.409Z,101567.80
2022-08-23T00:43:05.999Z,101567.48
2022-08-23T00:43:36.180Z,101569.30
2022-08-23T00:44:06.156Z,101568.47
2022-08-23T00:44:36.144Z,101568.97
2022-08-23T00:45:06.123Z,101563.34
2022-08-23T00:45:36.105Z,101565.84
2022-08-23T00:46:06.101Z,101569.98
2022-08-23T00:46:36.097Z,101563.19
2022-08-23T00:47:06.079Z,101567.31
2022-08-23T00:47:36.052Z,101567.66
2022-08-23T00:48:06.043Z,101566.14
2022-08-23T00:48:36.034Z,101567.16
2022-08-23T00:49:06.040Z,101565.16
2022-08-23T00:49:36.026Z,101567.50
2022-08-23T00:50:19.267Z,101565.99
2022-08-23T00:50:40.931Z,101563.35
2022-08-23T00:51:10.930Z,101564.52
2022-08-23T00:51:52.648Z,101563.87
2022-08-23T00:52:15.862Z,101566.70
2022-08-23T00:52:45.858Z,101567.18
2022-08-23T00:53:15.840Z,101569.33
2022-08-23T00:53:45.837Z,101565.87
2022-08-23T00:54:15.830Z,101566.02
2022-08-23T00:54:45.804Z,101565.03
2022-08-23T00:55:15.775Z,101563.87
2022-08-23T00:55:45.749Z,101567.67
2022-08-23T00:56:15.750Z,101562.88
2022-08-23T00:56:45.762Z,101567.67
2022-08-23T00:57:15.746Z,101565.35
2022-08-23T00:57:46.860Z,101565.87
2022-08-23T00:58:16.975Z,101567.34
2022-08-23T00:58:46.973Z,101567.36
2022-08-23T00:59:16.955Z,101568.33
2022-08-23T00:59:46.949Z,101565.70
2022-08-23T01:00:16.929Z,101566.85
2022-08-23T01:00:46.914Z,101565.87
2022-08-23T01:01:17.806Z,101567.84
2022-08-23T01:01:47.995Z,101565.34
2022-08-23T01:02:17.999Z,101568.97
2022-08-23T01:02:47.980Z,101563.70
2022-08-23T01:03:17.971Z,101567.16
2022-08-23T01:03:54.844Z,101560.70
2022-08-23T01:04:25.517Z,101565.52
2022-08-23T01:04:55.494Z,101561.55
2022-08-23T01:05:25.473Z,101561.06
2022-08-23T01:05:55.454Z,101563.23
2022-08-23T01:06:25.469Z,101558.59
2022-08-23T01:06:55.466Z,101558.45
2022-08-23T01:07:25.443Z,101561.88
2022-08-23T01:07:55.555Z,101563.67
2022-08-23T01:08:25.625Z,101556.59
2022-08-23T01:08:55.609Z,101559.74
2022-08-23T01:09:25.599Z,101559.56
2022-08-23T01:09:55.583Z,101561.22
2022-08-23T01:10:25.559Z,101559.07
2022-08-23T01:10:57.850Z,101561.38
2022-08-23T01:11:27.846Z,101558.75
2022-08-23T01:11:57.824Z,101563.70
2022-08-23T01:12:32.348Z,101563.88
2022-08-23T01:13:02.733Z,101565.88
2022-08-23T01:13:32.716Z,101561.87
2022-08-23T01:14:02.700Z,101568.66
2022-08-23T01:14:32.694Z,101564.20
2022-08-23T01:15:02.672Z,101563.88
2022-08-23T01:15:32.677Z,101558.91
2022-08-23T01:16:02.656Z,101558.91
2022-08-23T01:16:32.640Z,101564.89
2022-08-23T01:17:02.633Z,101568.21
2022-08-23T01:17:32.629Z,101568.88
2022-08-23T01:18:02.622Z,101565.40
2022-08-23T01:18:32.619Z,101570.22
2022-08-23T01:19:02.605Z,101563.91
2022-08-23T01:19:32.613Z,101565.89
2022-08-23T01:20:02.593Z,101564.38
2022-08-23T01:20:32.636Z,101570.66
2022-08-23T01:21:02.648Z,101566.56
2022-08-23T01:21:32.910Z,101567.67
2022-08-23T01:22:06.481Z,101568.69
2022-08-23T01:22:36.453Z,101566.20
2022-08-23T01:23:06.430Z,101569.02
2022-08-23T01:23:36.412Z,101568.73
2022-08-23T01:24:06.394Z,101567.89
2022-08-23T01:24:52.686Z,101569.56
2022-08-23T01:25:11.326Z,101566.25
2022-08-23T01:25:41.307Z,101567.39
2022-08-23T01:26:11.300Z,101569.06
2022-08-23T01:26:41.284Z,101567.91
2022-08-23T01:27:11.271Z,101566.92
2022-08-23T01:27:41.274Z,101569.57
2022-08-23T01:28:11.258Z,101569.55
2022-08-23T01:28:41.237Z,101569.39
2022-08-23T01:29:15.759Z,101566.26
2022-08-23T01:29:45.735Z,101572.05
2022-08-23T01:30:15.722Z,101575.70
2022-08-23T01:30:45.705Z,101572.39
2022-08-23T01:31:15.689Z,101572.37
2022-08-23T01:31:45.692Z,101569.73
2022-08-23T01:32:15.682Z,101571.05
2022-08-23T01:32:45.656Z,101573.52
2022-08-23T01:33:15.650Z,101568.91
2022-08-23T01:33:45.631Z,101572.39
2022-08-23T01:34:15.615Z,101567.91
2022-08-23T01:34:51.486Z,101570.40
2022-08-23T01:35:50.564Z,101566.08
2022-08-23T01:36:20.540Z,101568.89
2022-08-23T01:36:50.546Z,101566.92
2022-08-23T01:37:20.545Z,101569.91
2022-08-23T01:37:50.525Z,101574.20
2022-08-23T01:38:20.507Z,101572.89
2022-08-23T01:38:50.488Z,101573.52
2022-08-23T01:39:20.485Z,101572.86
2022-08-23T01:39:50.524Z,101573.38
2022-08-23T01:40:20.660Z,101569.88
2022-08-23T01:40:50.698Z,101575.52
2022-08-23T01:41:20.680Z,101571.39
2022-08-23T01:41:50.686Z,101571.39
2022-08-23T01:42:20.688Z,101571.23
2022-08-23T01:42:50.667Z,101571.06
2022-08-23T01:43:20.649Z,101565.92
2022-08-23T01:43:50.632Z,101569.89
2022-08-23T01:44:20.617Z,101568.23
2022-08-23T01:44:50.598Z,101569.07
2022-08-23T01:45:20.610Z,101565.60
2022-08-23T01:45:50.644Z,101569.07
2022-08-23T01:46:20.621Z,101568.74
2022-08-23T01:46:50.594Z,101568.08
2022-08-23T01:47:25.543Z,101571.06
2022-08-23T01:47:55.581Z,101567.73
2022-08-23T01:48:25.560Z,101566.42
2022-08-23T01:48:55.556Z,101571.39
2022-08-23T01:49:25.547Z,101568.09
2022-08-23T01:49:55.539Z,101569.11
2022-08-23T01:50:25.591Z,101570.24
2022-08-23T01:50:55.592Z,101569.58
2022-08-23T01:51:25.580Z,101567.91
2022-08-23T01:51:55.727Z,101565.58
2022-08-23T01:52:25.794Z,101566.79
2022-08-23T01:52:56.180Z,101567.94
2022-08-23T01:53:26.182Z,101568.11
2022-08-23T01:53:56.163Z,101564.27
2022-08-23T01:54:28.340Z,101564.12
2022-08-23T01:54:58.365Z,101569.11
2022-08-23T01:55:28.355Z,101569.08
2022-08-23T01:55:58.376Z,101567.78
2022-08-23T01:56:38.565Z,101572.55
2022-08-23T01:57:03.298Z,101567.76
2022-08-23T01:57:33.272Z,101567.11
2022-08-23T01:58:03.253Z,101571.38
2022-08-23T01:58:33.236Z,101567.11
2022-08-23T01:59:03.219Z,101568.27
2022-08-23T01:59:33.221Z,101570.25
2022-08-23T02:00:03.215Z,101567.45
2022-08-23T02:00:33.197Z,101566.45
2022-08-23T02:01:03.180Z,101567.11
2022-08-23T02:01:33.227Z,101564.80
2022-08-23T02:02:03.330Z,101570.11
2022-08-23T02:02:33.369Z,101567.11
2022-08-23T02:03:03.348Z,101570.94
2022-08-23T02:03:33.336Z,101567.95
2022-08-23T02:04:04.768Z,101570.25
2022-08-23T02:04:35.271Z,101566.94
2022-08-23T02:05:05.251Z,101567.11
2022-08-23T02:05:35.226Z,101570.77
2022-08-23T02:06:05.208Z,101566.28
2022-08-23T02:06:35.202Z,101565.62
2022-08-23T02:07:05.182Z,101564.10
2022-08-23T02:07:35.163Z,101564.77
2022-08-23T02:08:05.135Z,101568.73
2022-08-23T02:08:35.120Z,101564.75
2022-08-23T02:09:05.102Z,101563.64
2022-08-23T02:09:40.058Z,101565.62
2022-08-23T02:10:10.200Z,101563.14
2022-08-23T02:10:40.181Z,101568.42
2022-08-23T02:11:10.154Z,101567.11
2022-08-23T02:11:42.622Z,101565.78
2022-08-23T02:12:12.613Z,101562.97
2022-08-23T02:12:42.590Z,101565.47
2022-08-23T02:13:12.573Z,101566.95
2022-08-23T02:13:42.556Z,101565.48
2022-08-23T02:14:12.579Z,101562.36
2022-08-23T02:14:42.558Z,101562.52
2022-08-23T02:15:12.542Z,101569.30
2022-08-23T02:15:42.559Z,101569.10
2022-08-23T02:16:14.993Z,101566.62
2022-08-23T02:17:03.726Z,101566.62
2022-08-23T02:17:20.029Z,101568.45
2022-08-23T02:17:50.016Z,101566.14
2022-08-23T02:18:19.995Z,101565.96
2022-08-23T02:18:50.019Z,101569.10
2022-08-23T02:19:20.013Z,101561.32
2022-08-23T02:19:49.989Z,101568.63
2022-08-23T02:20:19.971Z,101568.30
2022-08-23T02:20:49.978Z,101567.16
2022-08-23T02:21:19.968Z,101565.47
2022-08-23T02:21:49.949Z,101565.83
2022-08-23T02:22:19.949Z,101567.95
2022-08-23T02:22:49.964Z,101563.80
2022-08-23T02:23:19.943Z,101564.64
2022-08-23T02:23:49.928Z,101565.47
2022-08-23T02:24:19.908Z,101566.29
2022-08-23T02:24:49.893Z,101562.81
2022-08-23T02:25:19.889Z,101561.98
2022-08-23T02:25:49.890Z,101560.64
2022-08-23T02:26:19.896Z,101561.82
2022-08-23T02:26:56.811Z,101563.32
2022-08-23T02:27:27.062Z,101568.77
2022-08-23T02:27:57.061Z,101561.98
2022-08-23T02:28:27.036Z,101561.36
2022-08-23T02:28:57.033Z,101564.30
2022-08-23T02:29:27.011Z,101562.64
2022-08-23T02:29:57.385Z,101564.14
2022-08-23T02:30:27.458Z,101567.47
2022-08-23T02:30:57.441Z,101566.12
2022-08-23T02:31:28.031Z,101566.95
2022-08-23T02:31:58.024Z,101565.49
2022-08-23T02:32:28.006Z,101567.12
2022-08-23T02:32:58.037Z,101564.95
2022-08-23T02:33:29.233Z,101566.12
2022-08-23T02:33:59.665Z,101564.80
2022-08-23T02:34:30.020Z,101563.52
2022-08-23T02:35:04.925Z,101564.67
2022-08-23T02:35:35.278Z,101572.13
2022-08-23T02:36:05.328Z,101571.47
2022-08-23T02:36:35.345Z,101566.83
2022-08-23T02:37:05.340Z,101568.17
2022-08-23T02:37:35.335Z,101571.47
2022-08-23T02:38:05.313Z,101569.66
2022-08-23T02:38:35.304Z,101570.50
2022-08-23T02:39:05.296Z,101571.31
2022-08-23T02:39:35.282Z,101569.66
2022-08-23T02:40:05.323Z,101567.98
2022-08-23T02:40:35.348Z,101569.49
2022-08-23T02:41:05.347Z,101571.47
2022-08-23T02:41:35.323Z,101571.48
2022-08-23T02:42:05.327Z,101567.66
2022-08-23T02:42:35.305Z,101570.10
2022-08-23T02:43:05.279Z,101568.98
2022-08-23T02:43:39.341Z,101568.66
2022-08-23T02:44:10.189Z,101569.82
2022-08-23T02:44:40.210Z,101571.48
2022-08-23T02:45:10.206Z,101570.31
2022-08-23T02:45:40.193Z,101570.46
2022-08-23T02:46:10.182Z,101570.80
2022-08-23T02:46:40.195Z,101571.81
2022-08-23T02:47:10.185Z,101571.14
2022-08-23T02:47:40.199Z,101566.84
2022-08-23T02:48:10.189Z,101568.34
2022-08-23T02:48:40.166Z,101570.66
2022-08-23T02:49:10.456Z,101568.48
2022-08-23T02:49:40.460Z,101565.86
2022-08-23T02:50:10.455Z,101571.63
2022-08-23T02:50:40.434Z,101572.48
2022-08-23T02:51:10.404Z,101565.86
2022-08-23T02:51:40.398Z,101567.34
2022-08-23T02:52:10.380Z,101565.52
2022-08-23T02:52:40.352Z,101571.31
2022-08-23T02:53:10.347Z,101569.00
2022-08-23T02:53:40.345Z,101566.16
2022-08-23T02:54:11.224Z,101567.17
2022-08-23T02:54:41.226Z,101567.36
2022-08-23T02:55:11.209Z,101565.86
2022-08-23T02:55:41.189Z,101567.88
2022-08-23T02:56:21.155Z,101567.20
2022-08-23T02:56:46.099Z,101569.53
2022-08-23T02:57:16.111Z,101572.33
2022-08-23T02:57:46.095Z,101572.02
2022-08-23T02:58:16.077Z,101571.16
2022-08-23T02:58:46.058Z,101572.97
2022-08-23T02:59:20.999Z,101572.62
2022-08-23T02:59:51.000Z,101574.80
2022-08-23T03:00:20.982Z,101575.97
2022-08-23T03:00:50.963Z,101571.50
2022-08-23T03:01:20.956Z,101572.46
2022-08-23T03:01:50.951Z,101571.84
2022-08-23T03:02:20.982Z,101575.62
2022-08-23T03:02:51.241Z,101571.17
2022-08-23T03:03:22.620Z,101573.81
2022-08-23T03:03:52.666Z,101574.16
2022-08-23T03:04:22.648Z,101575.30
2022-08-23T03:04:52.639Z,101570.66
2022-08-23T03:05:22.625Z,101576.30
2022-08-23T03:05:52.600Z,101572.66
2022-08-23T03:06:24.818Z,101579.30
2022-08-23T03:06:56.007Z,101577.62
2022-08-23T03:07:25.990Z,101572.01
2022-08-23T03:07:56.040Z,101577.30
2022-08-23T03:08:26.047Z,101577.12
2022-08-23T03:08:56.025Z,101580.77
2022-08-23T03:09:26.001Z,101576.98
2022-08-23T03:09:56.006Z,101575.97
2022-08-23T03:10:25.985Z,101576.48
2022-08-23T03:10:55.968Z,101576.64
2022-08-23T03:11:25.949Z,101576.65
2022-08-23T03:11:55.931Z,101580.78
2022-08-23T03:12:25.934Z,101580.30
2022-08-23T03:12:55.936Z,101579.98
2022-08-23T03:13:25.925Z,101584.77
2022-08-23T03:13:55.917Z,101582.30
2022-08-23T03:14:25.898Z,101580.31
2022-08-23T03:14:55.880Z,101578.69
2022-08-23T03:15:25.866Z,101583.62
2022-08-23T03:15:55.844Z,101584.14
2022-08-23T03:16:25.832Z,101584.31
2022-08-23T03:16:56.091Z,101585.12
2022-08-23T03:17:28.412Z,101584.11
2022-08-23T03:17:58.407Z,101585.14
2022-08-23T03:18:28.385Z,101579.19
2022-08-23T03:18:58.372Z,101584.48
2022-08-23T03:19:28.361Z,101580.02
2022-08-23T03:19:58.355Z,101582.33
2022-08-23T03:20:28.332Z,101583.16
2022-08-23T03:20:58.315Z,101579.67
2022-08-23T03:21:28.299Z,101577.17
2022-08-23T03:21:58.410Z,101576.81
2022-08-23T03:22:28.388Z,101577.63
2022-08-23T03:22:58.359Z,101579.28
2022-08-23T03:23:28.344Z,101576.99
2022-08-23T03:23:58.357Z,101578.34
2022-08-23T03:24:28.333Z,101576.84
2022-08-23T03:24:58.314Z,101578.66
2022-08-23T03:25:28.322Z,101580.02
2022-08-23T03:25:58.329Z,101581.49
2022-08-23T03:26:28.310Z,101581.52
2022-08-23T03:26:58.313Z,101582.00
2022-08-23T03:27:28.304Z,101583.48
2022-08-23T03:27:58.293Z,101582.34
2022-08-23T03:28:28.302Z,101586.29
2022-08-23T03:28:58.283Z,101582.50
2022-08-23T03:29:28.284Z,101589.30
2022-08-23T03:29:58.276Z,101587.80
2022-08-23T03:30:28.252Z,101592.61
2022-08-23T03:30:58.228Z,101589.45
2022-08-23T03:31:29.310Z,101588.80
2022-08-23T03:32:01.351Z,101592.42
2022-08-23T03:32:31.361Z,101595.91
2022-08-23T03:33:01.345Z,101591.78
2022-08-23T03:33:31.325Z,101592.95
2022-08-23T03:34:01.301Z,101590.45
2022-08-23T03:34:31.285Z,101594.26
2022-08-23T03:35:01.262Z,101596.08
2022-08-23T03:35:31.237Z,101596.27
2022-08-23T03:36:01.213Z,101593.95
2022-08-23T03:36:31.192Z,101589.31
2022-08-23T03:37:01.170Z,101599.09
2022-08-23T03:37:31.158Z,101595.77
2022-08-23T03:38:01.353Z,101595.93
2022-08-23T03:38:31.475Z,101598.73
2022-08-23T03:39:01.469Z,101596.78
2022-08-23T03:39:31.455Z,101596.41
2022-08-23T03:40:01.480Z,101599.08
2022-08-23T03:40:31.488Z,101600.25
2022-08-23T03:41:01.472Z,101602.89
2022-08-23T03:41:31.442Z,101600.25
2022-08-23T03:42:01.418Z,101600.75
2022-08-23T03:42:31.400Z,101598.27
2022-08-23T03:43:01.400Z,101600.25
2022-08-23T03:43:31.387Z,101603.37
2022-08-23T03:44:01.372Z,101601.23
2022-08-23T03:44:31.359Z,101602.75
2022-08-23T03:45:02.391Z,101600.74
2022-08-23T03:45:32.834Z,101596.62
2022-08-23T03:46:02.831Z,101602.23
2022-08-23T03:46:34.196Z,101604.72
2022-08-23T03:47:04.374Z,101602.75
2022-08-23T03:47:34.367Z,101600.76
2022-08-23T03:48:04.346Z,101603.41
2022-08-23T03:48:34.345Z,101604.39
2022-08-23T03:49:04.333Z,101603.73
2022-08-23T03:49:34.321Z,101599.43
2022-08-23T03:50:04.303Z,101602.58
2022-08-23T03:50:34.297Z,101604.41
2022-08-23T03:51:04.282Z,101602.44
2022-08-23T03:51:34.276Z,101601.58
2022-08-23T03:52:04.249Z,101599.75
2022-08-23T03:52:34.258Z,101600.58
2022-08-23T03:53:04.236Z,101600.42
2022-08-23T03:53:34.218Z,101602.91
2022-08-23T03:54:04.203Z,101602.58
2022-08-23T03:54:34.207Z,101598.27
2022-08-23T03:55:04.186Z,101600.42
2022-08-23T03:55:34.167Z,101602.08
2022-08-23T03:56:09.092Z,101601.27
2022-08-23T03:56:39.086Z,101605.40
2022-08-23T03:57:09.068Z,101605.07
2022-08-23T03:57:39.050Z,101601.63
2022-08-23T03:58:09.031Z,101598.48
2022-08-23T03:58:39.011Z,101598.80
2022-08-23T03:59:08.986Z,101604.27
2022-08-23T03:59:38.993Z,101597.31
2022-08-23T04:00:08.984Z,101603.30
2022-08-23T04:00:38.963Z,101602.30
2022-08-23T04:01:08.942Z,101605.78
2022-08-23T04:01:39.006Z,101609.76
2022-08-23T04:02:09.103Z,101607.77
2022-08-23T04:02:39.129Z,101605.75
2022-08-23T04:03:09.114Z,101604.75
2022-08-23T04:03:39.093Z,101603.29
2022-08-23T04:04:09.078Z,101607.23
2022-08-23T04:04:39.075Z,101605.91
2022-08-23T04:05:09.054Z,101608.57
2022-08-23T04:05:39.034Z,101607.89
2022-08-23T04:06:09.021Z,101603.95
2022-08-23T04:06:39.023Z,101605.41
2022-08-23T04:07:09.030Z,101609.20
2022-08-23T04:07:39.010Z,101608.71
2022-08-23T04:08:09.020Z,101607.27
2022-08-23T04:08:39.011Z,101610.70
2022-08-23T04:09:09.006Z,101611.08
2022-08-23T04:09:38.999Z,101613.38
2022-08-23T04:10:08.985Z,101612.22
2022-08-23T04:10:38.960Z,101610.25
2022-08-23T04:11:08.942Z,101609.92
2022-08-23T04:11:38.936Z,101604.96
2022-08-23T04:12:17.558Z,101609.58
2022-08-23T04:12:43.844Z,101612.88
2022-08-23T04:13:13.829Z,101611.70
2022-08-23T04:13:43.837Z,101610.05
2022-08-23T04:14:13.816Z,101610.38
2022-08-23T04:14:43.821Z,101610.88
2022-08-23T04:15:13.804Z,101608.74
2022-08-23T04:15:43.785Z,101612.89
2022-08-23T04:16:13.811Z,101615.55
2022-08-23T04:16:43.804Z,101611.90
2022-08-23T04:17:13.784Z,101616.88
2022-08-23T04:17:43.757Z,101626.98
2022-08-23T04:18:13.735Z,101622.67
2022-08-23T04:18:43.707Z,101624.16
2022-08-23T04:19:13.726Z,101623.82
2022-08-23T04:19:44.314Z,101624.50
2022-08-23T04:20:14.856Z,101627.46
2022-08-23T04:20:44.849Z,101628.14
2022-08-23T04:21:14.832Z,101623.35
2022-08-23T04:21:44.815Z,101621.53
2022-08-23T04:22:14.832Z,101625.17
2022-08-23T04:22:45.933Z,101624.84
2022-08-23T04:23:17.789Z,101620.02
2022-08-23T04:23:47.766Z,101623.12
2022-08-23T04:24:17.743Z,101622.67
2022-08-23T04:24:47.723Z,101623.34
2022-08-23T04:25:33.023Z,101615.05
2022-08-23T04:25:52.633Z,101622.17
2022-08-23T04:26:25.098Z,101613.23
2022-08-23T04:26:57.229Z,101621.20
2022-08-23T04:27:27.201Z,101615.23
2022-08-23T04:27:57.251Z,101618.22
2022-08-23T04:28:27.612Z,101625.00
2022-08-23T04:28:57.606Z,101620.52
2022-08-23T04:29:34.052Z,101618.53
2022-08-23T04:30:02.512Z,101621.50
2022-08-23T04:30:32.504Z,101627.64
2022-08-23T04:31:02.509Z,101626.13
2022-08-23T04:31:34.731Z,101626.98
2022-08-23T04:32:05.338Z,101630.75
2022-08-23T04:32:37.612Z,101629.78
2022-08-23T04:33:10.171Z,101632.27
2022-08-23T04:33:41.298Z,101632.42
2022-08-23T04:34:11.272Z,101633.28
2022-08-23T04:34:45.591Z,101634.11
2022-08-23T04:35:15.691Z,101628.48
2022-08-23T04:35:45.683Z,101634.89
2022-08-23T04:36:15.666Z,101629.42
2022-08-23T04:36:51.755Z,101635.40
2022-08-23T04:37:20.574Z,101634.25
2022-08-23T04:37:50.578Z,101632.23
2022-08-23T04:38:25.064Z,101636.05
2022-08-23T04:38:55.347Z,101636.05
2022-08-23T04:39:25.331Z,101636.22
2022-08-23T04:39:55.373Z,101634.23
2022-08-23T04:40:25.458Z,101634.89
2022-08-23T04:40:55.490Z,101633.23
2022-08-23T04:41:25.471Z,101634.22
2022-08-23T04:41:55.471Z,101640.01
2022-08-23T04:42:25.452Z,101638.05
2022-08-23T04:42:55.444Z,101637.20
2022-08-23T04:43:25.427Z,101638.54
2022-08-23T04:43:55.415Z,101636.22
2022-08-23T04:44:25.394Z,101635.89
2022-08-23T04:44:55.391Z,101638.36
2022-08-23T04:45:25.372Z,101640.53
2022-08-23T04:45:55.357Z,101638.36
2022-08-23T04:46:25.363Z,101641.50
2022-08-23T04:46:55.336Z,101639.33
2022-08-23T04:47:25.314Z,101641.17
2022-08-23T04:47:55.405Z,101642.31
2022-08-23T04:48:25.430Z,101644.48
2022-08-23T04:48:55.413Z,101641.00
2022-08-23T04:49:25.386Z,101644.48
2022-08-23T04:49:55.380Z,101646.64
2022-08-23T04:50:25.368Z,101647.62
2022-08-23T04:50:55.345Z,101646.61
2022-08-23T04:51:25.360Z,101646.97
2022-08-23T04:51:55.350Z,101648.61
2022-08-23T04:52:25.342Z,101647.95
2022-08-23T04:52:55.334Z,101651.55
2022-08-23T04:53:25.313Z,101649.91
2022-08-23T04:53:55.286Z,101652.38
2022-08-23T04:54:25.261Z,101648.73
2022-08-23T04:54:55.257Z,101649.39
2022-08-23T04:55:25.241Z,101649.91
2022-08-23T04:55:55.232Z,101646.41
2022-08-23T04:56:25.217Z,101648.08
2022-08-23T04:56:55.213Z,101655.20
2022-08-23T04:57:25.209Z,101642.60
2022-08-23T04:57:55.254Z,101647.72
2022-08-23T04:58:25.283Z,101651.36
2022-08-23T04:58:55.271Z,101648.05
2022-08-23T04:59:25.252Z,101650.02
2022-08-23T04:59:55.222Z,101647.86
2022-08-23T05:00:28.146Z,101648.40
2022-08-23T05:00:58.356Z,101654.53
2022-08-23T05:01:28.442Z,101651.38
2022-08-23T05:01:58.447Z,101653.34
2022-08-23T05:02:28.425Z,101653.36
2022-08-23T05:02:58.428Z,101657.80
2022-08-23T05:03:28.411Z,101651.36
2022-08-23T05:03:58.391Z,101655.50
2022-08-23T05:04:28.379Z,101653.52
2022-08-23T05:04:58.356Z,101655.00
2022-08-23T05:05:28.333Z,101658.98
2022-08-23T05:05:58.315Z,101657.96
2022-08-23T05:06:28.291Z,101659.80
2022-08-23T05:06:58.283Z,101657.66
2022-08-23T05:07:41.701Z,101658.48
2022-08-23T05:08:03.188Z,101662.09
2022-08-23T05:08:33.175Z,101661.75
2022-08-23T05:09:03.182Z,101662.75
2022-08-23T05:09:33.162Z,101660.75
2022-08-23T05:10:03.157Z,101662.22
2022-08-23T05:10:33.139Z,101663.04
2022-08-23T05:11:03.428Z,101659.23
2022-08-23T05:11:34.200Z,101657.73
2022-08-23T05:12:04.228Z,101658.23
2022-08-23T05:12:34.226Z,101661.21
2022-08-23T05:13:04.844Z,101664.00
2022-08-23T05:13:35.080Z,101659.17
2022-08-23T05:14:05.774Z,101662.33
2022-08-23T05:14:36.051Z,101653.88
2022-08-23T05:15:06.050Z,101655.68
2022-08-23T05:15:36.042Z,101654.00
2022-08-23T05:16:06.373Z,101655.99
2022-08-23T05:16:36.574Z,101654.66
2022-08-23T05:17:06.678Z,101659.47
2022-08-23T05:17:38.156Z,101660.89
2022-08-23T05:18:08.163Z,101660.89
2022-08-23T05:18:38.188Z,101660.36
2022-08-23T05:19:08.185Z,101665.66
2022-08-23T05:19:44.216Z,101664.66
2022-08-23T05:20:13.152Z,101661.84
2022-08-23T05:20:43.328Z,101661.84
2022-08-23T05:21:13.320Z,101665.30
2022-08-23T05:21:43.451Z,101660.34
2022-08-23T05:22:13.817Z,101657.85
2022-08-23T05:22:43.801Z,101662.33
2022-08-23T05:23:13.774Z,101664.62
2022-08-23T05:23:43.767Z,101663.81
2022-08-23T05:24:18.686Z,101665.64
2022-08-23T05:24:48.700Z,101666.30
2022-08-23T05:25:18.741Z,101666.94
2022-08-23T05:25:49.037Z,101666.75
2022-08-23T05:26:20.002Z,101662.30
2022-08-23T05:26:50.047Z,101658.95
2022-08-23T05:27:20.280Z,101663.25
2022-08-23T05:27:50.301Z,101662.75
2022-08-23T05:28:20.978Z,101663.24
2022-08-23T05:28:50.982Z,101664.88
2022-08-23T05:29:21.307Z,101664.55
2022-08-23T05:29:51.319Z,101669.48
2022-08-23T05:30:21.542Z,101665.67
2022-08-23T05:30:57.210Z,101668.81
2022-08-23T05:31:26.997Z,101660.86
2022-08-23T05:31:57.025Z,101664.33
2022-08-23T05:32:30.379Z,101664.67
2022-08-23T05:33:01.956Z,101661.51
2022-08-23T05:33:32.484Z,101661.48
2022-08-23T05:34:02.561Z,101663.46
2022-08-23T05:34:32.570Z,101662.13
2022-08-23T05:35:02.567Z,101663.77
2022-08-23T05:35:32.720Z,101665.41
2022-08-23T05:36:02.721Z,101661.77
2022-08-23T05:36:32.765Z,101664.56
2022-08-23T05:37:03.204Z,101667.03
2022-08-23T05:37:33.187Z,101665.39
2022-08-23T05:38:03.186Z,101665.85
2022-08-23T05:38:33.204Z,101664.66
2022-08-23T05:39:03.194Z,101669.30
2022-08-23T05:39:37.117Z,101669.12
2022-08-23T05:40:08.110Z,101669.92
2022-08-23T05:40:38.127Z,101665.45
2022-08-23T05:41:08.171Z,101667.93
2022-08-23T05:41:38.667Z,101669.88
2022-08-23T05:42:08.716Z,101676.13
2022-08-23T05:42:38.694Z,101676.95
2022-08-23T05:43:08.679Z,101672.50
2022-08-23T05:43:38.671Z,101674.80
2022-08-23T05:44:08.656Z,101670.28
2022-08-23T05:44:38.636Z,101670.32
2022-08-23T05:45:08.908Z,101669.62
2022-08-23T05:45:38.884Z,101672.77
2022-08-23T05:46:12.183Z,101677.41
2022-08-23T05:46:43.483Z,101673.24
2022-08-23T05:47:13.575Z,101673.73